<?xml version="1.0" encoding="UTF-8" standalone="no" ?>
<gpx xmlns="http://www.topografix.com/GPX/1/1" xmlns:xsi="http://www.w3.org/2001/XMLSchema-instance" xsi:schemaLocation="http://www.topografix.com/GPX/1/1 http://www.topografix.com/GPX/1/1/gpx.xsd" version="1.1" creator="VisuGPX - https://www.visugpx.com">
  <metadata>
    <name>Thorame (04) - Fabas (82) -  2021</name>
    <desc><![CDATA[Thorame (04) - Fabas (82) -  2021
plus de voies vertes qu'à l'aller vers Tarascon...]]></desc>
  </metadata>
  <trk>
    <name><![CDATA[Jour06A]]></name>
    <trkseg>
      <trkpt lat="43.99644" lon="2.55998">
        <ele>186.7</ele>
        <time>2021-08-18T06:05:12Z</time>
      </trkpt>
      <trkpt lat="43.99686" lon="2.55881">
        <ele>224.1</ele>
        <time>2021-08-18T06:09:57Z</time>
      </trkpt>
      <trkpt lat="43.99673" lon="2.5574">
        <ele>223.2</ele>
        <time>2021-08-18T06:10:17Z</time>
      </trkpt>
      <trkpt lat="43.99674" lon="2.55588">
        <ele>223</ele>
        <time>2021-08-18T06:10:37Z</time>
      </trkpt>
      <trkpt lat="43.99679" lon="2.55436">
        <ele>223.7</ele>
        <time>2021-08-18T06:11:39Z</time>
      </trkpt>
      <trkpt lat="43.99696" lon="2.55277">
        <ele>224.1</ele>
        <time>2021-08-18T06:11:59Z</time>
      </trkpt>
      <trkpt lat="43.9973" lon="2.55142">
        <ele>224.1</ele>
        <time>2021-08-18T06:12:19Z</time>
      </trkpt>
      <trkpt lat="43.99757" lon="2.55007">
        <ele>226.4</ele>
        <time>2021-08-18T06:12:39Z</time>
      </trkpt>
      <trkpt lat="43.99749" lon="2.54878">
        <ele>226.6</ele>
        <time>2021-08-18T06:12:59Z</time>
      </trkpt>
      <trkpt lat="43.99715" lon="2.54742">
        <ele>227.7</ele>
        <time>2021-08-18T06:13:19Z</time>
      </trkpt>
      <trkpt lat="43.99642" lon="2.54627">
        <ele>227.2</ele>
        <time>2021-08-18T06:13:39Z</time>
      </trkpt>
      <trkpt lat="43.99561" lon="2.54515">
        <ele>226.9</ele>
        <time>2021-08-18T06:13:59Z</time>
      </trkpt>
      <trkpt lat="43.99473" lon="2.54457">
        <ele>226.9</ele>
        <time>2021-08-18T06:14:19Z</time>
      </trkpt>
      <trkpt lat="43.99377" lon="2.54447">
        <ele>227.3</ele>
        <time>2021-08-18T06:14:39Z</time>
      </trkpt>
      <trkpt lat="43.9928" lon="2.54457">
        <ele>227.6</ele>
        <time>2021-08-18T06:14:59Z</time>
      </trkpt>
      <trkpt lat="43.9918" lon="2.54463">
        <ele>228.8</ele>
        <time>2021-08-18T06:15:19Z</time>
      </trkpt>
      <trkpt lat="43.9907" lon="2.54431">
        <ele>229.6</ele>
        <time>2021-08-18T06:15:44Z</time>
      </trkpt>
      <trkpt lat="43.98974" lon="2.54376">
        <ele>229.6</ele>
        <time>2021-08-18T06:16:04Z</time>
      </trkpt>
      <trkpt lat="43.9889" lon="2.54268">
        <ele>228.6</ele>
        <time>2021-08-18T06:16:29Z</time>
      </trkpt>
      <trkpt lat="43.98843" lon="2.54123">
        <ele>227.8</ele>
        <time>2021-08-18T06:16:54Z</time>
      </trkpt>
      <trkpt lat="43.9883" lon="2.53988">
        <ele>225.8</ele>
        <time>2021-08-18T06:17:14Z</time>
      </trkpt>
      <trkpt lat="43.9882" lon="2.53846">
        <ele>222.3</ele>
        <time>2021-08-18T06:17:34Z</time>
      </trkpt>
      <trkpt lat="43.98792" lon="2.53721">
        <ele>220.2</ele>
        <time>2021-08-18T06:17:54Z</time>
      </trkpt>
      <trkpt lat="43.98763" lon="2.53584">
        <ele>218.4</ele>
        <time>2021-08-18T06:18:14Z</time>
      </trkpt>
      <trkpt lat="43.9874" lon="2.53435">
        <ele>217</ele>
        <time>2021-08-18T06:18:34Z</time>
      </trkpt>
      <trkpt lat="43.9872" lon="2.53302">
        <ele>214.9</ele>
        <time>2021-08-18T06:18:54Z</time>
      </trkpt>
      <trkpt lat="43.98698" lon="2.53176">
        <ele>213.4</ele>
        <time>2021-08-18T06:19:14Z</time>
      </trkpt>
      <trkpt lat="43.98659" lon="2.53031">
        <ele>215.2</ele>
        <time>2021-08-18T06:19:34Z</time>
      </trkpt>
      <trkpt lat="43.98592" lon="2.52932">
        <ele>215.2</ele>
        <time>2021-08-18T06:19:54Z</time>
      </trkpt>
      <trkpt lat="43.98498" lon="2.52837">
        <ele>216</ele>
        <time>2021-08-18T06:20:19Z</time>
      </trkpt>
      <trkpt lat="43.98408" lon="2.52794">
        <ele>215.3</ele>
        <time>2021-08-18T06:20:39Z</time>
      </trkpt>
      <trkpt lat="43.98302" lon="2.52816">
        <ele>216</ele>
        <time>2021-08-18T06:20:59Z</time>
      </trkpt>
      <trkpt lat="43.98199" lon="2.52852">
        <ele>216.6</ele>
        <time>2021-08-18T06:21:19Z</time>
      </trkpt>
      <trkpt lat="43.98104" lon="2.52877">
        <ele>216.9</ele>
        <time>2021-08-18T06:21:39Z</time>
      </trkpt>
      <trkpt lat="43.97994" lon="2.52869">
        <ele>217</ele>
        <time>2021-08-18T06:21:59Z</time>
      </trkpt>
      <trkpt lat="43.97907" lon="2.52809">
        <ele>221</ele>
        <time>2021-08-18T06:22:43Z</time>
      </trkpt>
      <trkpt lat="43.97842" lon="2.5269">
        <ele>219.5</ele>
        <time>2021-08-18T06:23:03Z</time>
      </trkpt>
      <trkpt lat="43.97803" lon="2.52574">
        <ele>217.5</ele>
        <time>2021-08-18T06:23:23Z</time>
      </trkpt>
      <trkpt lat="43.97759" lon="2.52419">
        <ele>216.9</ele>
        <time>2021-08-18T06:23:48Z</time>
      </trkpt>
      <trkpt lat="43.97713" lon="2.523">
        <ele>216.9</ele>
        <time>2021-08-18T06:24:08Z</time>
      </trkpt>
      <trkpt lat="43.97637" lon="2.52209">
        <ele>215.6</ele>
        <time>2021-08-18T06:24:28Z</time>
      </trkpt>
      <trkpt lat="43.97542" lon="2.52157">
        <ele>215.3</ele>
        <time>2021-08-18T06:24:48Z</time>
      </trkpt>
      <trkpt lat="43.97436" lon="2.52155">
        <ele>216.5</ele>
        <time>2021-08-18T06:25:08Z</time>
      </trkpt>
      <trkpt lat="43.97344" lon="2.52169">
        <ele>216.5</ele>
        <time>2021-08-18T06:25:23Z</time>
      </trkpt>
      <trkpt lat="43.97198" lon="2.52256">
        <ele>214.2</ele>
        <time>2021-08-18T06:25:55Z</time>
      </trkpt>
      <trkpt lat="43.97111" lon="2.52282">
        <ele>212</ele>
        <time>2021-08-18T06:26:16Z</time>
      </trkpt>
      <trkpt lat="43.96996" lon="2.5223">
        <ele>209.8</ele>
        <time>2021-08-18T06:26:36Z</time>
      </trkpt>
      <trkpt lat="43.96889" lon="2.5218">
        <ele>207.8</ele>
        <time>2021-08-18T06:26:56Z</time>
      </trkpt>
      <trkpt lat="43.96786" lon="2.52136">
        <ele>205.1</ele>
        <time>2021-08-18T06:27:16Z</time>
      </trkpt>
      <trkpt lat="43.96684" lon="2.52104">
        <ele>204.5</ele>
        <time>2021-08-18T06:27:36Z</time>
      </trkpt>
      <trkpt lat="43.96592" lon="2.52076">
        <ele>202.9</ele>
        <time>2021-08-18T06:27:51Z</time>
      </trkpt>
      <trkpt lat="43.96494" lon="2.5205">
        <ele>200.8</ele>
        <time>2021-08-18T06:28:11Z</time>
      </trkpt>
      <trkpt lat="43.96397" lon="2.52024">
        <ele>198.2</ele>
        <time>2021-08-18T06:28:31Z</time>
      </trkpt>
      <trkpt lat="43.96278" lon="2.51996">
        <ele>198.2</ele>
        <time>2021-08-18T06:28:56Z</time>
      </trkpt>
      <trkpt lat="43.96179" lon="2.51969">
        <ele>199.4</ele>
        <time>2021-08-18T06:29:16Z</time>
      </trkpt>
      <trkpt lat="43.96085" lon="2.51916">
        <ele>198.6</ele>
        <time>2021-08-18T06:29:31Z</time>
      </trkpt>
      <trkpt lat="43.96001" lon="2.51849">
        <ele>198.1</ele>
        <time>2021-08-18T06:29:51Z</time>
      </trkpt>
      <trkpt lat="43.95936" lon="2.51744">
        <ele>198.1</ele>
        <time>2021-08-18T06:30:11Z</time>
      </trkpt>
      <trkpt lat="43.95893" lon="2.51625">
        <ele>199.2</ele>
        <time>2021-08-18T06:30:31Z</time>
      </trkpt>
      <trkpt lat="43.95878" lon="2.51486">
        <ele>201.2</ele>
        <time>2021-08-18T06:30:51Z</time>
      </trkpt>
      <trkpt lat="43.95845" lon="2.51344">
        <ele>202.6</ele>
        <time>2021-08-18T06:31:16Z</time>
      </trkpt>
      <trkpt lat="43.95816" lon="2.51214">
        <ele>204.2</ele>
        <time>2021-08-18T06:31:36Z</time>
      </trkpt>
      <trkpt lat="43.95785" lon="2.51062">
        <ele>204.1</ele>
        <time>2021-08-18T06:31:56Z</time>
      </trkpt>
      <trkpt lat="43.95756" lon="2.5093">
        <ele>204.1</ele>
        <time>2021-08-18T06:32:16Z</time>
      </trkpt>
      <trkpt lat="43.9573" lon="2.50789">
        <ele>206</ele>
        <time>2021-08-18T06:32:36Z</time>
      </trkpt>
      <trkpt lat="43.95684" lon="2.50675">
        <ele>207.4</ele>
        <time>2021-08-18T06:32:56Z</time>
      </trkpt>
      <trkpt lat="43.95626" lon="2.50567">
        <ele>209.1</ele>
        <time>2021-08-18T06:33:16Z</time>
      </trkpt>
      <trkpt lat="43.95577" lon="2.50433">
        <ele>211.7</ele>
        <time>2021-08-18T06:33:36Z</time>
      </trkpt>
      <trkpt lat="43.95526" lon="2.50313">
        <ele>214.6</ele>
        <time>2021-08-18T06:33:56Z</time>
      </trkpt>
      <trkpt lat="43.95463" lon="2.50186">
        <ele>217.4</ele>
        <time>2021-08-18T06:34:16Z</time>
      </trkpt>
      <trkpt lat="43.95393" lon="2.50096">
        <ele>219.1</ele>
        <time>2021-08-18T06:34:36Z</time>
      </trkpt>
      <trkpt lat="43.95315" lon="2.50006">
        <ele>220.8</ele>
        <time>2021-08-18T06:34:56Z</time>
      </trkpt>
      <trkpt lat="43.95221" lon="2.49919">
        <ele>222.7</ele>
        <time>2021-08-18T06:35:21Z</time>
      </trkpt>
      <trkpt lat="43.95122" lon="2.49872">
        <ele>226.3</ele>
        <time>2021-08-18T06:35:46Z</time>
      </trkpt>
      <trkpt lat="43.95027" lon="2.4985">
        <ele>228.7</ele>
        <time>2021-08-18T06:36:01Z</time>
      </trkpt>
      <trkpt lat="43.94933" lon="2.49867">
        <ele>230.5</ele>
        <time>2021-08-18T06:36:16Z</time>
      </trkpt>
      <trkpt lat="43.94828" lon="2.49869">
        <ele>232.7</ele>
        <time>2021-08-18T06:36:36Z</time>
      </trkpt>
      <trkpt lat="43.94727" lon="2.4986">
        <ele>235.6</ele>
        <time>2021-08-18T06:36:56Z</time>
      </trkpt>
      <trkpt lat="43.94621" lon="2.49828">
        <ele>238.4</ele>
        <time>2021-08-18T06:37:21Z</time>
      </trkpt>
      <trkpt lat="43.94545" lon="2.49753">
        <ele>239.8</ele>
        <time>2021-08-18T06:37:41Z</time>
      </trkpt>
      <trkpt lat="43.94478" lon="2.49659">
        <ele>237.6</ele>
        <time>2021-08-18T06:37:56Z</time>
      </trkpt>
      <trkpt lat="43.94422" lon="2.49554">
        <ele>235.8</ele>
        <time>2021-08-18T06:38:16Z</time>
      </trkpt>
      <trkpt lat="43.9437" lon="2.4944">
        <ele>236.4</ele>
        <time>2021-08-18T06:38:36Z</time>
      </trkpt>
      <trkpt lat="43.9433" lon="2.49302">
        <ele>232.3</ele>
        <time>2021-08-18T06:38:56Z</time>
      </trkpt>
      <trkpt lat="43.94312" lon="2.49166">
        <ele>230.2</ele>
        <time>2021-08-18T06:39:16Z</time>
      </trkpt>
      <trkpt lat="43.94319" lon="2.49004">
        <ele>225.3</ele>
        <time>2021-08-18T06:39:41Z</time>
      </trkpt>
      <trkpt lat="43.94315" lon="2.48879">
        <ele>222.3</ele>
        <time>2021-08-18T06:40:01Z</time>
      </trkpt>
      <trkpt lat="43.94265" lon="2.48743">
        <ele>211.5</ele>
        <time>2021-08-18T06:42:24Z</time>
      </trkpt>
      <trkpt lat="43.94253" lon="2.486">
        <ele>207.2</ele>
        <time>2021-08-18T06:42:44Z</time>
      </trkpt>
      <trkpt lat="43.94258" lon="2.48452">
        <ele>200.6</ele>
        <time>2021-08-18T06:43:04Z</time>
      </trkpt>
      <trkpt lat="43.94292" lon="2.48329">
        <ele>195.6</ele>
        <time>2021-08-18T06:43:29Z</time>
      </trkpt>
      <trkpt lat="43.94355" lon="2.4823">
        <ele>193.1</ele>
        <time>2021-08-18T06:44:22Z</time>
      </trkpt>
      <trkpt lat="43.94367" lon="2.48083">
        <ele>191.3</ele>
        <time>2021-08-18T06:44:42Z</time>
      </trkpt>
      <trkpt lat="43.94417" lon="2.47964">
        <ele>192.7</ele>
        <time>2021-08-18T06:45:07Z</time>
      </trkpt>
      <trkpt lat="43.94458" lon="2.47817">
        <ele>196.3</ele>
        <time>2021-08-18T06:45:32Z</time>
      </trkpt>
      <trkpt lat="43.94488" lon="2.47687">
        <ele>197.4</ele>
        <time>2021-08-18T06:45:47Z</time>
      </trkpt>
      <trkpt lat="43.94528" lon="2.4757">
        <ele>198.6</ele>
        <time>2021-08-18T06:46:02Z</time>
      </trkpt>
      <trkpt lat="43.94574" lon="2.47427">
        <ele>202.7</ele>
        <time>2021-08-18T06:46:22Z</time>
      </trkpt>
      <trkpt lat="43.94594" lon="2.47301">
        <ele>210.1</ele>
        <time>2021-08-18T06:46:47Z</time>
      </trkpt>
      <trkpt lat="43.94591" lon="2.47165">
        <ele>215.6</ele>
        <time>2021-08-18T06:47:12Z</time>
      </trkpt>
      <trkpt lat="43.94591" lon="2.47029">
        <ele>215.8</ele>
        <time>2021-08-18T06:47:32Z</time>
      </trkpt>
      <trkpt lat="43.94588" lon="2.46901">
        <ele>213</ele>
        <time>2021-08-18T06:47:47Z</time>
      </trkpt>
      <trkpt lat="43.94603" lon="2.46755">
        <ele>210.1</ele>
        <time>2021-08-18T06:48:02Z</time>
      </trkpt>
      <trkpt lat="43.9463" lon="2.46609">
        <ele>208</ele>
        <time>2021-08-18T06:48:17Z</time>
      </trkpt>
      <trkpt lat="43.94669" lon="2.46497">
        <ele>206.7</ele>
        <time>2021-08-18T06:48:37Z</time>
      </trkpt>
      <trkpt lat="43.94715" lon="2.46369">
        <ele>209.2</ele>
        <time>2021-08-18T06:49:02Z</time>
      </trkpt>
      <trkpt lat="43.94749" lon="2.46246">
        <ele>210.9</ele>
        <time>2021-08-18T06:49:22Z</time>
      </trkpt>
      <trkpt lat="43.94767" lon="2.46096">
        <ele>210.5</ele>
        <time>2021-08-18T06:49:42Z</time>
      </trkpt>
      <trkpt lat="43.94804" lon="2.45958">
        <ele>210</ele>
        <time>2021-08-18T06:50:02Z</time>
      </trkpt>
      <trkpt lat="43.94863" lon="2.45843">
        <ele>210.6</ele>
        <time>2021-08-18T06:50:22Z</time>
      </trkpt>
      <trkpt lat="43.94925" lon="2.45744">
        <ele>211.4</ele>
        <time>2021-08-18T06:50:42Z</time>
      </trkpt>
      <trkpt lat="43.95015" lon="2.45682">
        <ele>214.8</ele>
        <time>2021-08-18T06:51:12Z</time>
      </trkpt>
      <trkpt lat="43.95104" lon="2.45605">
        <ele>216.5</ele>
        <time>2021-08-18T06:51:47Z</time>
      </trkpt>
      <trkpt lat="43.95161" lon="2.4551">
        <ele>217.9</ele>
        <time>2021-08-18T06:52:07Z</time>
      </trkpt>
      <trkpt lat="43.95193" lon="2.4538">
        <ele>219.1</ele>
        <time>2021-08-18T06:52:27Z</time>
      </trkpt>
      <trkpt lat="43.95204" lon="2.45246">
        <ele>219.6</ele>
        <time>2021-08-18T06:52:47Z</time>
      </trkpt>
      <trkpt lat="43.95215" lon="2.45096">
        <ele>219.4</ele>
        <time>2021-08-18T06:53:07Z</time>
      </trkpt>
      <trkpt lat="43.95201" lon="2.44937">
        <ele>220</ele>
        <time>2021-08-18T06:53:27Z</time>
      </trkpt>
      <trkpt lat="43.95177" lon="2.44797">
        <ele>220.6</ele>
        <time>2021-08-18T06:53:47Z</time>
      </trkpt>
      <trkpt lat="43.95157" lon="2.44673">
        <ele>221.4</ele>
        <time>2021-08-18T06:54:07Z</time>
      </trkpt>
      <trkpt lat="43.95119" lon="2.44548">
        <ele>220.8</ele>
        <time>2021-08-18T06:54:27Z</time>
      </trkpt>
      <trkpt lat="43.95079" lon="2.44423">
        <ele>218.5</ele>
        <time>2021-08-18T06:54:52Z</time>
      </trkpt>
      <trkpt lat="43.95074" lon="2.44272">
        <ele>218.1</ele>
        <time>2021-08-18T06:55:17Z</time>
      </trkpt>
      <trkpt lat="43.95089" lon="2.44144">
        <ele>216.3</ele>
        <time>2021-08-18T06:55:37Z</time>
      </trkpt>
      <trkpt lat="43.95113" lon="2.4401">
        <ele>213.7</ele>
        <time>2021-08-18T06:55:57Z</time>
      </trkpt>
      <trkpt lat="43.95154" lon="2.43886">
        <ele>211.6</ele>
        <time>2021-08-18T06:56:17Z</time>
      </trkpt>
      <trkpt lat="43.95204" lon="2.43761">
        <ele>210</ele>
        <time>2021-08-18T06:56:37Z</time>
      </trkpt>
      <trkpt lat="43.9525" lon="2.43655">
        <ele>208.3</ele>
        <time>2021-08-18T06:56:57Z</time>
      </trkpt>
      <trkpt lat="43.95324" lon="2.4357">
        <ele>207.2</ele>
        <time>2021-08-18T06:57:17Z</time>
      </trkpt>
      <trkpt lat="43.95413" lon="2.43488">
        <ele>208.4</ele>
        <time>2021-08-18T06:57:42Z</time>
      </trkpt>
      <trkpt lat="43.95495" lon="2.43399">
        <ele>205.3</ele>
        <time>2021-08-18T06:58:02Z</time>
      </trkpt>
      <trkpt lat="43.95555" lon="2.43267">
        <ele>202.5</ele>
        <time>2021-08-18T06:58:22Z</time>
      </trkpt>
      <trkpt lat="43.95549" lon="2.43118">
        <ele>201.2</ele>
        <time>2021-08-18T06:58:42Z</time>
      </trkpt>
      <trkpt lat="43.95519" lon="2.42982">
        <ele>199.7</ele>
        <time>2021-08-18T06:59:02Z</time>
      </trkpt>
      <trkpt lat="43.95449" lon="2.42854">
        <ele>200.2</ele>
        <time>2021-08-18T06:59:22Z</time>
      </trkpt>
      <trkpt lat="43.95362" lon="2.42759">
        <ele>198.1</ele>
        <time>2021-08-18T06:59:47Z</time>
      </trkpt>
      <trkpt lat="43.95273" lon="2.42699">
        <ele>196.8</ele>
        <time>2021-08-18T07:00:07Z</time>
      </trkpt>
      <trkpt lat="43.9518" lon="2.42635">
        <ele>196.1</ele>
        <time>2021-08-18T07:00:27Z</time>
      </trkpt>
      <trkpt lat="43.95094" lon="2.42575">
        <ele>194.9</ele>
        <time>2021-08-18T07:00:47Z</time>
      </trkpt>
      <trkpt lat="43.95006" lon="2.4252">
        <ele>200.7</ele>
        <time>2021-08-18T07:01:07Z</time>
      </trkpt>
      <trkpt lat="43.94941" lon="2.42411">
        <ele>202.7</ele>
        <time>2021-08-18T07:01:27Z</time>
      </trkpt>
      <trkpt lat="43.94904" lon="2.42285">
        <ele>204.5</ele>
        <time>2021-08-18T07:01:47Z</time>
      </trkpt>
      <trkpt lat="43.94925" lon="2.42141">
        <ele>207.3</ele>
        <time>2021-08-18T07:02:12Z</time>
      </trkpt>
      <trkpt lat="43.9499" lon="2.42028">
        <ele>208.3</ele>
        <time>2021-08-18T07:02:37Z</time>
      </trkpt>
      <trkpt lat="43.95031" lon="2.41914">
        <ele>209.3</ele>
        <time>2021-08-18T07:02:57Z</time>
      </trkpt>
      <trkpt lat="43.95115" lon="2.41848">
        <ele>212.6</ele>
        <time>2021-08-18T07:03:17Z</time>
      </trkpt>
      <trkpt lat="43.95191" lon="2.41773">
        <ele>213.4</ele>
        <time>2021-08-18T07:03:37Z</time>
      </trkpt>
      <trkpt lat="43.95248" lon="2.41664">
        <ele>213.2</ele>
        <time>2021-08-18T07:03:57Z</time>
      </trkpt>
      <trkpt lat="43.95298" lon="2.41544">
        <ele>212.1</ele>
        <time>2021-08-18T07:04:17Z</time>
      </trkpt>
      <trkpt lat="43.9528" lon="2.41384">
        <ele>213</ele>
        <time>2021-08-18T07:04:37Z</time>
      </trkpt>
      <trkpt lat="43.9525" lon="2.41249">
        <ele>211.4</ele>
        <time>2021-08-18T07:04:57Z</time>
      </trkpt>
      <trkpt lat="43.95203" lon="2.41125">
        <ele>208.6</ele>
        <time>2021-08-18T07:05:12Z</time>
      </trkpt>
      <trkpt lat="43.95148" lon="2.41001">
        <ele>207.2</ele>
        <time>2021-08-18T07:05:32Z</time>
      </trkpt>
      <trkpt lat="43.95088" lon="2.40898">
        <ele>208.2</ele>
        <time>2021-08-18T07:05:52Z</time>
      </trkpt>
      <trkpt lat="43.95004" lon="2.40795">
        <ele>204.3</ele>
        <time>2021-08-18T07:06:17Z</time>
      </trkpt>
      <trkpt lat="43.94902" lon="2.4072">
        <ele>206.4</ele>
        <time>2021-08-18T07:06:42Z</time>
      </trkpt>
      <trkpt lat="43.94809" lon="2.40682">
        <ele>210.6</ele>
        <time>2021-08-18T07:07:02Z</time>
      </trkpt>
      <trkpt lat="43.94715" lon="2.40663">
        <ele>211.9</ele>
        <time>2021-08-18T07:07:22Z</time>
      </trkpt>
      <trkpt lat="43.94608" lon="2.40629">
        <ele>212.2</ele>
        <time>2021-08-18T07:07:47Z</time>
      </trkpt>
      <trkpt lat="43.94503" lon="2.40604">
        <ele>213.6</ele>
        <time>2021-08-18T07:08:07Z</time>
      </trkpt>
      <trkpt lat="43.94403" lon="2.40566">
        <ele>213.1</ele>
        <time>2021-08-18T07:08:27Z</time>
      </trkpt>
      <trkpt lat="43.94306" lon="2.40476">
        <ele>213</ele>
        <time>2021-08-18T07:08:47Z</time>
      </trkpt>
      <trkpt lat="43.94229" lon="2.4039">
        <ele>215.6</ele>
        <time>2021-08-18T07:09:07Z</time>
      </trkpt>
      <trkpt lat="43.94188" lon="2.40263">
        <ele>218.3</ele>
        <time>2021-08-18T07:09:32Z</time>
      </trkpt>
      <trkpt lat="43.94182" lon="2.39986">
        <ele>205.5</ele>
        <time>2021-08-18T07:12:59Z</time>
      </trkpt>
      <trkpt lat="43.94235" lon="2.39879">
        <ele>217.7</ele>
        <time>2021-08-18T07:13:19Z</time>
      </trkpt>
      <trkpt lat="43.94276" lon="2.39755">
        <ele>223.2</ele>
        <time>2021-08-18T07:13:39Z</time>
      </trkpt>
      <trkpt lat="43.9432" lon="2.39648">
        <ele>223.6</ele>
        <time>2021-08-18T07:13:59Z</time>
      </trkpt>
      <trkpt lat="43.9437" lon="2.39518">
        <ele>225.4</ele>
        <time>2021-08-18T07:14:19Z</time>
      </trkpt>
      <trkpt lat="43.94405" lon="2.39384">
        <ele>223.3</ele>
        <time>2021-08-18T07:14:39Z</time>
      </trkpt>
      <trkpt lat="43.94401" lon="2.39257">
        <ele>222.7</ele>
        <time>2021-08-18T07:14:54Z</time>
      </trkpt>
      <trkpt lat="43.94375" lon="2.39135">
        <ele>221.6</ele>
        <time>2021-08-18T07:15:09Z</time>
      </trkpt>
      <trkpt lat="43.94344" lon="2.39">
        <ele>218.9</ele>
        <time>2021-08-18T07:15:29Z</time>
      </trkpt>
      <trkpt lat="43.94308" lon="2.38861">
        <ele>217.7</ele>
        <time>2021-08-18T07:15:49Z</time>
      </trkpt>
      <trkpt lat="43.9426" lon="2.38734">
        <ele>216.9</ele>
        <time>2021-08-18T07:16:09Z</time>
      </trkpt>
      <trkpt lat="43.94188" lon="2.38599">
        <ele>215.8</ele>
        <time>2021-08-18T07:16:29Z</time>
      </trkpt>
      <trkpt lat="43.94143" lon="2.38468">
        <ele>217.4</ele>
        <time>2021-08-18T07:16:49Z</time>
      </trkpt>
      <trkpt lat="43.94123" lon="2.38313">
        <ele>216.1</ele>
        <time>2021-08-18T07:17:09Z</time>
      </trkpt>
      <trkpt lat="43.94141" lon="2.3818">
        <ele>216.4</ele>
        <time>2021-08-18T07:17:44Z</time>
      </trkpt>
      <trkpt lat="43.94171" lon="2.38053">
        <ele>219.3</ele>
        <time>2021-08-18T07:18:19Z</time>
      </trkpt>
      <trkpt lat="43.94221" lon="2.37944">
        <ele>223.5</ele>
        <time>2021-08-18T07:18:44Z</time>
      </trkpt>
      <trkpt lat="43.94281" lon="2.37845">
        <ele>236.2</ele>
        <time>2021-08-18T07:20:33Z</time>
      </trkpt>
      <trkpt lat="43.94365" lon="2.37797">
        <ele>236.7</ele>
        <time>2021-08-18T07:20:53Z</time>
      </trkpt>
      <trkpt lat="43.9446" lon="2.3781">
        <ele>237.8</ele>
        <time>2021-08-18T07:21:13Z</time>
      </trkpt>
      <trkpt lat="43.94535" lon="2.3771">
        <ele>241.9</ele>
        <time>2021-08-18T07:22:24Z</time>
      </trkpt>
      <trkpt lat="43.94603" lon="2.37613">
        <ele>242.2</ele>
        <time>2021-08-18T07:23:21Z</time>
      </trkpt>
      <trkpt lat="43.94525" lon="2.377">
        <ele>215.5</ele>
        <time>2021-08-18T07:47:35Z</time>
      </trkpt>
      <trkpt lat="43.94433" lon="2.37674">
        <ele>209.7</ele>
        <time>2021-08-18T07:48:15Z</time>
      </trkpt>
      <trkpt lat="43.94382" lon="2.3756">
        <ele>207.3</ele>
        <time>2021-08-18T07:48:35Z</time>
      </trkpt>
      <trkpt lat="43.94363" lon="2.37433">
        <ele>205</ele>
        <time>2021-08-18T07:48:50Z</time>
      </trkpt>
      <trkpt lat="43.9435" lon="2.37265">
        <ele>200.9</ele>
        <time>2021-08-18T07:49:10Z</time>
      </trkpt>
      <trkpt lat="43.94352" lon="2.37132">
        <ele>197.2</ele>
        <time>2021-08-18T07:49:25Z</time>
      </trkpt>
      <trkpt lat="43.94334" lon="2.36994">
        <ele>190.9</ele>
        <time>2021-08-18T07:49:40Z</time>
      </trkpt>
      <trkpt lat="43.94317" lon="2.36864">
        <ele>187.7</ele>
        <time>2021-08-18T07:49:55Z</time>
      </trkpt>
      <trkpt lat="43.94273" lon="2.36734">
        <ele>185.7</ele>
        <time>2021-08-18T07:50:15Z</time>
      </trkpt>
      <trkpt lat="43.94232" lon="2.36607">
        <ele>185.8</ele>
        <time>2021-08-18T07:50:35Z</time>
      </trkpt>
      <trkpt lat="43.94192" lon="2.36488">
        <ele>186.2</ele>
        <time>2021-08-18T07:50:55Z</time>
      </trkpt>
      <trkpt lat="43.94149" lon="2.36362">
        <ele>187.5</ele>
        <time>2021-08-18T07:51:15Z</time>
      </trkpt>
      <trkpt lat="43.94106" lon="2.36236">
        <ele>189.6</ele>
        <time>2021-08-18T07:51:35Z</time>
      </trkpt>
      <trkpt lat="43.94059" lon="2.3611">
        <ele>189.9</ele>
        <time>2021-08-18T07:51:55Z</time>
      </trkpt>
      <trkpt lat="43.94002" lon="2.35969">
        <ele>190.1</ele>
        <time>2021-08-18T07:52:15Z</time>
      </trkpt>
      <trkpt lat="43.93967" lon="2.35848">
        <ele>192.9</ele>
        <time>2021-08-18T07:52:35Z</time>
      </trkpt>
      <trkpt lat="43.9393" lon="2.35727">
        <ele>194.2</ele>
        <time>2021-08-18T07:52:55Z</time>
      </trkpt>
      <trkpt lat="43.93875" lon="2.35621">
        <ele>192.3</ele>
        <time>2021-08-18T07:53:15Z</time>
      </trkpt>
      <trkpt lat="43.9381" lon="2.35526">
        <ele>192.5</ele>
        <time>2021-08-18T07:53:35Z</time>
      </trkpt>
      <trkpt lat="43.93732" lon="2.35425">
        <ele>190.7</ele>
        <time>2021-08-18T07:53:55Z</time>
      </trkpt>
      <trkpt lat="43.93652" lon="2.35317">
        <ele>191.3</ele>
        <time>2021-08-18T07:54:15Z</time>
      </trkpt>
      <trkpt lat="43.93579" lon="2.35215">
        <ele>190.9</ele>
        <time>2021-08-18T07:54:35Z</time>
      </trkpt>
      <trkpt lat="43.93501" lon="2.35121">
        <ele>192.4</ele>
        <time>2021-08-18T07:54:55Z</time>
      </trkpt>
      <trkpt lat="43.93418" lon="2.3502">
        <ele>193.2</ele>
        <time>2021-08-18T07:55:15Z</time>
      </trkpt>
      <trkpt lat="43.93348" lon="2.3493">
        <ele>195.5</ele>
        <time>2021-08-18T07:55:35Z</time>
      </trkpt>
      <trkpt lat="43.93268" lon="2.34822">
        <ele>198.8</ele>
        <time>2021-08-18T07:56:00Z</time>
      </trkpt>
      <trkpt lat="43.93216" lon="2.34716">
        <ele>199</ele>
        <time>2021-08-18T07:56:20Z</time>
      </trkpt>
      <trkpt lat="43.93174" lon="2.34565">
        <ele>196.8</ele>
        <time>2021-08-18T07:56:40Z</time>
      </trkpt>
      <trkpt lat="43.93147" lon="2.34401">
        <ele>194</ele>
        <time>2021-08-18T07:57:00Z</time>
      </trkpt>
      <trkpt lat="43.93126" lon="2.34238">
        <ele>190.7</ele>
        <time>2021-08-18T07:57:15Z</time>
      </trkpt>
      <trkpt lat="43.93123" lon="2.34073">
        <ele>189.4</ele>
        <time>2021-08-18T07:57:35Z</time>
      </trkpt>
      <trkpt lat="43.93144" lon="2.33949">
        <ele>188.7</ele>
        <time>2021-08-18T07:57:50Z</time>
      </trkpt>
      <trkpt lat="43.9318" lon="2.33812">
        <ele>187.5</ele>
        <time>2021-08-18T07:58:10Z</time>
      </trkpt>
      <trkpt lat="43.93213" lon="2.33679">
        <ele>187.2</ele>
        <time>2021-08-18T07:58:30Z</time>
      </trkpt>
      <trkpt lat="43.93221" lon="2.33545">
        <ele>191.7</ele>
        <time>2021-08-18T07:58:50Z</time>
      </trkpt>
      <trkpt lat="43.93211" lon="2.33404">
        <ele>197.5</ele>
        <time>2021-08-18T07:59:15Z</time>
      </trkpt>
      <trkpt lat="43.93217" lon="2.33261">
        <ele>200.5</ele>
        <time>2021-08-18T07:59:35Z</time>
      </trkpt>
      <trkpt lat="43.9321" lon="2.33099">
        <ele>200.4</ele>
        <time>2021-08-18T07:59:55Z</time>
      </trkpt>
      <trkpt lat="43.93203" lon="2.32943">
        <ele>204.5</ele>
        <time>2021-08-18T08:00:15Z</time>
      </trkpt>
      <trkpt lat="43.93201" lon="2.32812">
        <ele>208.1</ele>
        <time>2021-08-18T08:00:35Z</time>
      </trkpt>
      <trkpt lat="43.93198" lon="2.32675">
        <ele>209.4</ele>
        <time>2021-08-18T08:00:55Z</time>
      </trkpt>
      <trkpt lat="43.93207" lon="2.32548">
        <ele>207.6</ele>
        <time>2021-08-18T08:01:15Z</time>
      </trkpt>
      <trkpt lat="43.93242" lon="2.32391">
        <ele>208.2</ele>
        <time>2021-08-18T08:01:40Z</time>
      </trkpt>
      <trkpt lat="43.93259" lon="2.32249">
        <ele>209.9</ele>
        <time>2021-08-18T08:02:00Z</time>
      </trkpt>
      <trkpt lat="43.93264" lon="2.32122">
        <ele>213.4</ele>
        <time>2021-08-18T08:02:20Z</time>
      </trkpt>
      <trkpt lat="43.93267" lon="2.31958">
        <ele>214.1</ele>
        <time>2021-08-18T08:02:40Z</time>
      </trkpt>
      <trkpt lat="43.93266" lon="2.31808">
        <ele>216</ele>
        <time>2021-08-18T08:02:55Z</time>
      </trkpt>
      <trkpt lat="43.93262" lon="2.31679">
        <ele>214.4</ele>
        <time>2021-08-18T08:03:10Z</time>
      </trkpt>
      <trkpt lat="43.93258" lon="2.31532">
        <ele>205.2</ele>
        <time>2021-08-18T08:03:30Z</time>
      </trkpt>
      <trkpt lat="43.93242" lon="2.31383">
        <ele>203.8</ele>
        <time>2021-08-18T08:03:55Z</time>
      </trkpt>
      <trkpt lat="43.9322" lon="2.31254">
        <ele>203.6</ele>
        <time>2021-08-18T08:04:15Z</time>
      </trkpt>
      <trkpt lat="43.93206" lon="2.31111">
        <ele>205.2</ele>
        <time>2021-08-18T08:04:35Z</time>
      </trkpt>
      <trkpt lat="43.93195" lon="2.30974">
        <ele>204.1</ele>
        <time>2021-08-18T08:04:55Z</time>
      </trkpt>
      <trkpt lat="43.93184" lon="2.30831">
        <ele>201.7</ele>
        <time>2021-08-18T08:05:20Z</time>
      </trkpt>
      <trkpt lat="43.93171" lon="2.30696">
        <ele>200.2</ele>
        <time>2021-08-18T08:06:45Z</time>
      </trkpt>
      <trkpt lat="43.93162" lon="2.30561">
        <ele>201.7</ele>
        <time>2021-08-18T08:07:05Z</time>
      </trkpt>
      <trkpt lat="43.9315" lon="2.30433">
        <ele>203.7</ele>
        <time>2021-08-18T08:07:25Z</time>
      </trkpt>
      <trkpt lat="43.93152" lon="2.303">
        <ele>204.8</ele>
        <time>2021-08-18T08:07:45Z</time>
      </trkpt>
      <trkpt lat="43.93184" lon="2.30165">
        <ele>203.3</ele>
        <time>2021-08-18T08:08:05Z</time>
      </trkpt>
      <trkpt lat="43.93221" lon="2.30037">
        <ele>203.2</ele>
        <time>2021-08-18T08:08:25Z</time>
      </trkpt>
      <trkpt lat="43.93273" lon="2.29912">
        <ele>203.4</ele>
        <time>2021-08-18T08:08:45Z</time>
      </trkpt>
      <trkpt lat="43.93331" lon="2.29814">
        <ele>201.2</ele>
        <time>2021-08-18T08:10:32Z</time>
      </trkpt>
      <trkpt lat="43.93337" lon="2.29188">
        <ele>207.1</ele>
        <time>2021-08-18T08:12:11Z</time>
      </trkpt>
      <trkpt lat="43.93256" lon="2.29106">
        <ele>197.1</ele>
        <time>2021-08-18T08:12:26Z</time>
      </trkpt>
      <trkpt lat="43.93158" lon="2.29054">
        <ele>190.3</ele>
        <time>2021-08-18T08:12:41Z</time>
      </trkpt>
      <trkpt lat="43.93071" lon="2.28991">
        <ele>183.4</ele>
        <time>2021-08-18T08:12:56Z</time>
      </trkpt>
      <trkpt lat="43.92996" lon="2.2885">
        <ele>178.9</ele>
        <time>2021-08-18T08:13:16Z</time>
      </trkpt>
      <trkpt lat="43.92971" lon="2.2872">
        <ele>182.7</ele>
        <time>2021-08-18T08:13:31Z</time>
      </trkpt>
      <trkpt lat="43.92979" lon="2.28569">
        <ele>186.6</ele>
        <time>2021-08-18T08:13:51Z</time>
      </trkpt>
      <trkpt lat="43.93034" lon="2.28435">
        <ele>190.9</ele>
        <time>2021-08-18T08:14:11Z</time>
      </trkpt>
      <trkpt lat="43.93103" lon="2.28357">
        <ele>193.4</ele>
        <time>2021-08-18T08:14:26Z</time>
      </trkpt>
      <trkpt lat="43.93163" lon="2.28252">
        <ele>197.6</ele>
        <time>2021-08-18T08:15:22Z</time>
      </trkpt>
      <trkpt lat="43.93804" lon="2.26178">
        <ele>-51.8</ele>
        <time>2021-08-18T08:17:59Z</time>
      </trkpt>
      <trkpt lat="43.93292" lon="2.2697">
        <ele>180.3</ele>
        <time>2021-08-18T08:18:07Z</time>
      </trkpt>
      <trkpt lat="43.9325" lon="2.26843">
        <ele>184.4</ele>
        <time>2021-08-18T08:18:22Z</time>
      </trkpt>
      <trkpt lat="43.93225" lon="2.26714">
        <ele>179.6</ele>
        <time>2021-08-18T08:18:37Z</time>
      </trkpt>
      <trkpt lat="43.93202" lon="2.26588">
        <ele>182.1</ele>
        <time>2021-08-18T08:18:52Z</time>
      </trkpt>
      <trkpt lat="43.93181" lon="2.26448">
        <ele>179.6</ele>
        <time>2021-08-18T08:19:07Z</time>
      </trkpt>
      <trkpt lat="43.93141" lon="2.26331">
        <ele>178.8</ele>
        <time>2021-08-18T08:19:22Z</time>
      </trkpt>
      <trkpt lat="43.93086" lon="2.26183">
        <ele>180.9</ele>
        <time>2021-08-18T08:19:42Z</time>
      </trkpt>
      <trkpt lat="43.93058" lon="2.26063">
        <ele>179.4</ele>
        <time>2021-08-18T08:19:57Z</time>
      </trkpt>
      <trkpt lat="43.93029" lon="2.25903">
        <ele>179.4</ele>
        <time>2021-08-18T08:20:17Z</time>
      </trkpt>
      <trkpt lat="43.93012" lon="2.25749">
        <ele>177.8</ele>
        <time>2021-08-18T08:20:37Z</time>
      </trkpt>
      <trkpt lat="43.93025" lon="2.25614">
        <ele>178.8</ele>
        <time>2021-08-18T08:20:52Z</time>
      </trkpt>
      <trkpt lat="43.93049" lon="2.25489">
        <ele>180.6</ele>
        <time>2021-08-18T08:21:07Z</time>
      </trkpt>
      <trkpt lat="43.93098" lon="2.25355">
        <ele>182.6</ele>
        <time>2021-08-18T08:21:27Z</time>
      </trkpt>
      <trkpt lat="43.9316" lon="2.25228">
        <ele>185.2</ele>
        <time>2021-08-18T08:21:47Z</time>
      </trkpt>
      <trkpt lat="43.93211" lon="2.25118">
        <ele>187</ele>
        <time>2021-08-18T08:22:07Z</time>
      </trkpt>
      <trkpt lat="43.9327" lon="2.25011">
        <ele>189.5</ele>
        <time>2021-08-18T08:22:27Z</time>
      </trkpt>
      <trkpt lat="43.93351" lon="2.24907">
        <ele>192.9</ele>
        <time>2021-08-18T08:22:47Z</time>
      </trkpt>
      <trkpt lat="43.93415" lon="2.24823">
        <ele>195</ele>
        <time>2021-08-18T08:23:02Z</time>
      </trkpt>
      <trkpt lat="43.93486" lon="2.24705">
        <ele>198.4</ele>
        <time>2021-08-18T08:23:22Z</time>
      </trkpt>
      <trkpt lat="43.93537" lon="2.24601">
        <ele>199.7</ele>
        <time>2021-08-18T08:23:37Z</time>
      </trkpt>
      <trkpt lat="43.93595" lon="2.24504">
        <ele>196.2</ele>
        <time>2021-08-18T08:23:52Z</time>
      </trkpt>
      <trkpt lat="43.93648" lon="2.24404">
        <ele>191.8</ele>
        <time>2021-08-18T08:24:12Z</time>
      </trkpt>
      <trkpt lat="43.93721" lon="2.24291">
        <ele>184.4</ele>
        <time>2021-08-18T08:24:32Z</time>
      </trkpt>
      <trkpt lat="43.93809" lon="2.24184">
        <ele>178.2</ele>
        <time>2021-08-18T08:24:52Z</time>
      </trkpt>
      <trkpt lat="43.93878" lon="2.24096">
        <ele>177.3</ele>
        <time>2021-08-18T08:25:12Z</time>
      </trkpt>
      <trkpt lat="43.93953" lon="2.24029">
        <ele>179.8</ele>
        <time>2021-08-18T08:25:37Z</time>
      </trkpt>
      <trkpt lat="43.94006" lon="2.23905">
        <ele>176.9</ele>
        <time>2021-08-18T08:29:06Z</time>
      </trkpt>
      <trkpt lat="43.94104" lon="2.23818">
        <ele>177.4</ele>
        <time>2021-08-18T08:29:31Z</time>
      </trkpt>
      <trkpt lat="43.94191" lon="2.23747">
        <ele>176.7</ele>
        <time>2021-08-18T08:29:51Z</time>
      </trkpt>
      <trkpt lat="43.9429" lon="2.23684">
        <ele>179.7</ele>
        <time>2021-08-18T08:30:34Z</time>
      </trkpt>
      <trkpt lat="43.94377" lon="2.23635">
        <ele>180.1</ele>
        <time>2021-08-18T08:30:54Z</time>
      </trkpt>
      <trkpt lat="43.94487" lon="2.23592">
        <ele>180.6</ele>
        <time>2021-08-18T08:31:19Z</time>
      </trkpt>
      <trkpt lat="43.94585" lon="2.23559">
        <ele>180.4</ele>
        <time>2021-08-18T08:31:39Z</time>
      </trkpt>
      <trkpt lat="43.94695" lon="2.23522">
        <ele>178.7</ele>
        <time>2021-08-18T08:31:59Z</time>
      </trkpt>
      <trkpt lat="43.94785" lon="2.23476">
        <ele>177.1</ele>
        <time>2021-08-18T08:32:19Z</time>
      </trkpt>
      <trkpt lat="43.94871" lon="2.23387">
        <ele>176.9</ele>
        <time>2021-08-18T08:32:39Z</time>
      </trkpt>
      <trkpt lat="43.94945" lon="2.23266">
        <ele>180.7</ele>
        <time>2021-08-18T08:32:54Z</time>
      </trkpt>
      <trkpt lat="43.94986" lon="2.23147">
        <ele>177.4</ele>
        <time>2021-08-18T08:33:09Z</time>
      </trkpt>
      <trkpt lat="43.95012" lon="2.23005">
        <ele>175.4</ele>
        <time>2021-08-18T08:33:24Z</time>
      </trkpt>
      <trkpt lat="43.9501" lon="2.22879">
        <ele>174</ele>
        <time>2021-08-18T08:33:39Z</time>
      </trkpt>
      <trkpt lat="43.95027" lon="2.22751">
        <ele>174.4</ele>
        <time>2021-08-18T08:34:04Z</time>
      </trkpt>
      <trkpt lat="43.95023" lon="2.22605">
        <ele>173.6</ele>
        <time>2021-08-18T08:34:24Z</time>
      </trkpt>
      <trkpt lat="43.95037" lon="2.22469">
        <ele>168.9</ele>
        <time>2021-08-18T08:34:44Z</time>
      </trkpt>
      <trkpt lat="43.95064" lon="2.22334">
        <ele>166.4</ele>
        <time>2021-08-18T08:34:59Z</time>
      </trkpt>
      <trkpt lat="43.95113" lon="2.22218">
        <ele>166.3</ele>
        <time>2021-08-18T08:35:14Z</time>
      </trkpt>
      <trkpt lat="43.95162" lon="2.22114">
        <ele>165.3</ele>
        <time>2021-08-18T08:35:29Z</time>
      </trkpt>
      <trkpt lat="43.95204" lon="2.22">
        <ele>166</ele>
        <time>2021-08-18T08:35:49Z</time>
      </trkpt>
      <trkpt lat="43.95219" lon="2.21845">
        <ele>168.6</ele>
        <time>2021-08-18T08:36:19Z</time>
      </trkpt>
      <trkpt lat="43.95211" lon="2.21719">
        <ele>170.4</ele>
        <time>2021-08-18T08:36:39Z</time>
      </trkpt>
      <trkpt lat="43.95188" lon="2.21584">
        <ele>169.1</ele>
        <time>2021-08-18T08:36:59Z</time>
      </trkpt>
      <trkpt lat="43.9518" lon="2.21453">
        <ele>168.2</ele>
        <time>2021-08-18T08:37:19Z</time>
      </trkpt>
      <trkpt lat="43.9517" lon="2.21303">
        <ele>167</ele>
        <time>2021-08-18T08:37:39Z</time>
      </trkpt>
      <trkpt lat="43.95119" lon="2.2118">
        <ele>166</ele>
        <time>2021-08-18T08:37:59Z</time>
      </trkpt>
      <trkpt lat="43.95072" lon="2.21067">
        <ele>170.8</ele>
        <time>2021-08-18T08:39:09Z</time>
      </trkpt>
      <trkpt lat="43.95044" lon="2.20924">
        <ele>172.3</ele>
        <time>2021-08-18T08:39:29Z</time>
      </trkpt>
      <trkpt lat="43.9501" lon="2.20784">
        <ele>174</ele>
        <time>2021-08-18T08:39:44Z</time>
      </trkpt>
      <trkpt lat="43.94948" lon="2.20658">
        <ele>172.5</ele>
        <time>2021-08-18T08:40:04Z</time>
      </trkpt>
      <trkpt lat="43.94891" lon="2.20536">
        <ele>173</ele>
        <time>2021-08-18T08:40:24Z</time>
      </trkpt>
      <trkpt lat="43.94821" lon="2.20416">
        <ele>173.5</ele>
        <time>2021-08-18T08:40:44Z</time>
      </trkpt>
      <trkpt lat="43.94745" lon="2.20302">
        <ele>175.8</ele>
        <time>2021-08-18T08:41:04Z</time>
      </trkpt>
      <trkpt lat="43.94703" lon="2.20187">
        <ele>174.6</ele>
        <time>2021-08-18T08:41:19Z</time>
      </trkpt>
      <trkpt lat="43.94634" lon="2.20099">
        <ele>174.4</ele>
        <time>2021-08-18T08:41:34Z</time>
      </trkpt>
      <trkpt lat="43.94557" lon="2.1998">
        <ele>172.5</ele>
        <time>2021-08-18T08:41:54Z</time>
      </trkpt>
      <trkpt lat="43.94506" lon="2.19868">
        <ele>174.1</ele>
        <time>2021-08-18T08:42:14Z</time>
      </trkpt>
      <trkpt lat="43.94439" lon="2.19771">
        <ele>174.6</ele>
        <time>2021-08-18T08:42:44Z</time>
      </trkpt>
      <trkpt lat="43.94394" lon="2.19636">
        <ele>175.4</ele>
        <time>2021-08-18T08:43:04Z</time>
      </trkpt>
      <trkpt lat="43.94337" lon="2.19505">
        <ele>171.3</ele>
        <time>2021-08-18T08:43:24Z</time>
      </trkpt>
      <trkpt lat="43.94281" lon="2.19374">
        <ele>168</ele>
        <time>2021-08-18T08:43:44Z</time>
      </trkpt>
      <trkpt lat="43.9424" lon="2.1922">
        <ele>170.2</ele>
        <time>2021-08-18T08:44:04Z</time>
      </trkpt>
      <trkpt lat="43.94197" lon="2.19067">
        <ele>173.5</ele>
        <time>2021-08-18T08:44:24Z</time>
      </trkpt>
      <trkpt lat="43.9413" lon="2.18956">
        <ele>175.4</ele>
        <time>2021-08-18T08:44:49Z</time>
      </trkpt>
      <trkpt lat="43.94052" lon="2.18868">
        <ele>175.2</ele>
        <time>2021-08-18T08:45:19Z</time>
      </trkpt>
      <trkpt lat="43.94004" lon="2.18742">
        <ele>175.6</ele>
        <time>2021-08-18T08:45:49Z</time>
      </trkpt>
      <trkpt lat="43.9394" lon="2.18639">
        <ele>175.6</ele>
        <time>2021-08-18T08:46:09Z</time>
      </trkpt>
      <trkpt lat="43.93881" lon="2.18511">
        <ele>176.3</ele>
        <time>2021-08-18T08:46:29Z</time>
      </trkpt>
      <trkpt lat="43.93829" lon="2.18369">
        <ele>176.7</ele>
        <time>2021-08-18T08:46:49Z</time>
      </trkpt>
      <trkpt lat="43.93783" lon="2.18248">
        <ele>178.7</ele>
        <time>2021-08-18T08:47:09Z</time>
      </trkpt>
      <trkpt lat="43.93711" lon="2.18141">
        <ele>179.9</ele>
        <time>2021-08-18T08:47:49Z</time>
      </trkpt>
      <trkpt lat="43.9365" lon="2.18046">
        <ele>181.3</ele>
        <time>2021-08-18T08:48:24Z</time>
      </trkpt>
      <trkpt lat="43.93595" lon="2.17938">
        <ele>181.1</ele>
        <time>2021-08-18T08:48:49Z</time>
      </trkpt>
      <trkpt lat="43.93574" lon="2.17803">
        <ele>178.1</ele>
        <time>2021-08-18T08:49:14Z</time>
      </trkpt>
      <trkpt lat="43.93509" lon="2.17705">
        <ele>173.9</ele>
        <time>2021-08-18T08:49:34Z</time>
      </trkpt>
      <trkpt lat="43.93466" lon="2.17582">
        <ele>172.8</ele>
        <time>2021-08-18T08:49:54Z</time>
      </trkpt>
      <trkpt lat="43.93431" lon="2.17444">
        <ele>172.7</ele>
        <time>2021-08-18T08:50:14Z</time>
      </trkpt>
      <trkpt lat="43.93402" lon="2.17322">
        <ele>171.9</ele>
        <time>2021-08-18T08:50:34Z</time>
      </trkpt>
      <trkpt lat="43.93395" lon="2.17186">
        <ele>170.4</ele>
        <time>2021-08-18T08:50:54Z</time>
      </trkpt>
      <trkpt lat="43.93328" lon="2.17055">
        <ele>169.4</ele>
        <time>2021-08-18T08:51:19Z</time>
      </trkpt>
      <trkpt lat="43.93276" lon="2.16922">
        <ele>170.9</ele>
        <time>2021-08-18T08:51:39Z</time>
      </trkpt>
      <trkpt lat="43.93213" lon="2.16809">
        <ele>173.3</ele>
        <time>2021-08-18T08:52:30Z</time>
      </trkpt>
      <trkpt lat="43.93194" lon="2.16647">
        <ele>172.5</ele>
        <time>2021-08-18T08:52:50Z</time>
      </trkpt>
      <trkpt lat="43.93153" lon="2.16529">
        <ele>171.5</ele>
        <time>2021-08-18T08:53:05Z</time>
      </trkpt>
      <trkpt lat="43.93124" lon="2.16408">
        <ele>170.9</ele>
        <time>2021-08-18T08:53:25Z</time>
      </trkpt>
      <trkpt lat="43.93087" lon="2.16284">
        <ele>169.2</ele>
        <time>2021-08-18T08:53:50Z</time>
      </trkpt>
      <trkpt lat="43.93068" lon="2.1615">
        <ele>169.2</ele>
        <time>2021-08-18T08:54:25Z</time>
      </trkpt>
      <trkpt lat="43.93057" lon="2.16008">
        <ele>168.2</ele>
        <time>2021-08-18T08:54:45Z</time>
      </trkpt>
      <trkpt lat="43.93045" lon="2.15853">
        <ele>166.3</ele>
        <time>2021-08-18T08:55:05Z</time>
      </trkpt>
      <trkpt lat="43.93037" lon="2.15703">
        <ele>162.7</ele>
        <time>2021-08-18T08:55:30Z</time>
      </trkpt>
      <trkpt lat="43.93028" lon="2.15565">
        <ele>159.8</ele>
        <time>2021-08-18T08:55:50Z</time>
      </trkpt>
      <trkpt lat="43.93021" lon="2.15423">
        <ele>157.2</ele>
        <time>2021-08-18T08:56:10Z</time>
      </trkpt>
      <trkpt lat="43.93013" lon="2.15288">
        <ele>156.4</ele>
        <time>2021-08-18T08:56:30Z</time>
      </trkpt>
      <trkpt lat="43.92959" lon="2.15172">
        <ele>155.2</ele>
        <time>2021-08-18T08:57:14Z</time>
      </trkpt>
      <trkpt lat="43.9289" lon="2.15074">
        <ele>155.7</ele>
        <time>2021-08-18T08:57:34Z</time>
      </trkpt>
      <trkpt lat="43.9282" lon="2.14973">
        <ele>155.2</ele>
        <time>2021-08-18T08:57:54Z</time>
      </trkpt>
      <trkpt lat="43.92766" lon="2.14869">
        <ele>156.3</ele>
        <time>2021-08-18T08:58:19Z</time>
      </trkpt>
      <trkpt lat="43.92671" lon="2.14815">
        <ele>156.7</ele>
        <time>2021-08-18T08:59:23Z</time>
      </trkpt>
      <trkpt lat="43.92565" lon="2.14843">
        <ele>157</ele>
        <time>2021-08-18T08:59:48Z</time>
      </trkpt>
      <trkpt lat="43.92545" lon="2.147">
        <ele>159.7</ele>
        <time>2021-08-18T09:00:24Z</time>
      </trkpt>
      <trkpt lat="43.92544" lon="2.14559">
        <ele>159.9</ele>
        <time>2021-08-18T09:00:44Z</time>
      </trkpt>
      <trkpt lat="43.92471" lon="2.14465">
        <ele>159.4</ele>
        <time>2021-08-18T09:01:04Z</time>
      </trkpt>
      <trkpt lat="43.9239" lon="2.14387">
        <ele>159.1</ele>
        <time>2021-08-18T09:01:29Z</time>
      </trkpt>
      <trkpt lat="43.9232" lon="2.14298">
        <ele>158.5</ele>
        <time>2021-08-18T09:01:49Z</time>
      </trkpt>
      <trkpt lat="43.92257" lon="2.14195">
        <ele>156.9</ele>
        <time>2021-08-18T09:02:14Z</time>
      </trkpt>
      <trkpt lat="43.92248" lon="2.14051">
        <ele>157.1</ele>
        <time>2021-08-18T09:02:39Z</time>
      </trkpt>
      <trkpt lat="43.92246" lon="2.13904">
        <ele>158.4</ele>
        <time>2021-08-18T09:02:59Z</time>
      </trkpt>
      <trkpt lat="43.9223" lon="2.13774">
        <ele>159.7</ele>
        <time>2021-08-18T09:05:34Z</time>
      </trkpt>
      <trkpt lat="43.92139" lon="2.13738">
        <ele>167</ele>
        <time>2021-08-18T09:12:18Z</time>
      </trkpt>
      <trkpt lat="43.92077" lon="2.13615">
        <ele>162.1</ele>
        <time>2021-08-18T09:12:43Z</time>
      </trkpt>
      <trkpt lat="43.9214" lon="2.13716">
        <ele>153</ele>
        <time>2021-08-18T09:13:45Z</time>
      </trkpt>
      <trkpt lat="43.92188" lon="2.13825">
        <ele>151.2</ele>
        <time>2021-08-18T09:14:10Z</time>
      </trkpt>
      <trkpt lat="43.92216" lon="2.13958">
        <ele>141</ele>
        <time>2021-08-18T09:15:06Z</time>
      </trkpt>
      <trkpt lat="43.92254" lon="2.13839">
        <ele>142.9</ele>
        <time>2021-08-18T09:15:46Z</time>
      </trkpt>
    </trkseg>
  </trk>
</gpx>